Time;durP1;ratioP1;P1;durP2;ratioP2;P2;SDS_P1;SDS_P2;PMS_P1;PMS_P2;Temp;Humidity;BMP_temperature;BMP_pressure;BME280_temperature;BME280_humidity;BME280_pressure;Samples;Min_cycle;Max_cycle;Signal;HPM_P1;HPM_P2
2022/03/31 00:00:16;;;;;;;22.03;13.43;;;;;;;;;;5085693;28;20369;-81
2022/03/31 00:02:43;;;;;;;21.13;12.97;;;;;;;;;;5086010;28;20201;-79
2022/03/31 00:05:10;;;;;;;20.90;13.10;;;;;;;;;;5082697;28;20211;-80
2022/03/31 00:07:48;;;;;;;17.83;11.83;;;;;;;;;;5073382;28;20233;-79
2022/03/31 00:10:15;;;;;;;18.27;12.47;;;;;;;;;;5071875;28;20300;-79
2022/03/31 00:12:43;;;;;;;17.93;12.70;;;;;;;;;;5072155;28;20212;-80
2022/03/31 00:15:10;;;;;;;18.67;12.07;;;;;;;;;;5071646;28;20216;-80
2022/03/31 00:17:37;;;;;;;17.60;12.90;;;;;;;;;;5072066;28;20229;-79
2022/03/31 00:20:05;;;;;;;18.60;12.30;;;;;;;;;;5071694;28;20201;-79
2022/03/31 00:22:32;;;;;;;18.23;12.10;;;;;;;;;;5071871;28;20205;-79
2022/03/31 00:24:59;;;;;;;21.70;13.53;;;;;;;;;;5072345;28;20206;-79
2022/03/31 00:27:26;;;;;;;21.90;13.63;;;;;;;;;;5071085;28;20298;-79
2022/03/31 00:29:54;;;;;;;23.73;14.43;;;;;;;;;;5071953;28;20225;-79
2022/03/31 00:32:22;;;;;;;21.07;13.37;;;;;;;;;;5071488;28;20229;-79
2022/03/31 00:34:49;;;;;;;20.33;13.03;;;;;;;;;;5071982;28;20207;-79
2022/03/31 00:37:16;;;;;;;22.17;13.53;;;;;;;;;;5071092;28;20662;-79
2022/03/31 00:39:43;;;;;;;21.33;14.03;;;;;;;;;;5071710;28;20569;-79
2022/03/31 00:42:10;;;;;;;19.63;13.83;;;;;;;;;;5071355;28;20233;-79
2022/03/31 00:44:37;;;;;;;21.27;13.83;;;;;;;;;;5072132;28;20302;-79
2022/03/31 00:47:05;;;;;;;23.40;14.67;;;;;;;;;;5070767;28;20241;-79
2022/03/31 00:49:34;;;;;;;22.87;14.47;;;;;;;;;;5071621;28;20252;-80
2022/03/31 00:52:01;;;;;;;24.20;15.60;;;;;;;;;;5071420;28;20702;-80
2022/03/31 00:54:29;;;;;;;27.80;16.60;;;;;;;;;;5071705;28;20252;-80
2022/03/31 00:56:57;;;;;;;29.37;17.77;;;;;;;;;;5070952;28;20291;-79
2022/03/31 00:59:24;;;;;;;29.00;16.23;;;;;;;;;;5076251;28;20237;-80
2022/03/31 01:01:51;;;;;;;24.33;15.27;;;;;;;;;;5074704;28;20759;-79
2022/03/31 01:04:20;;;;;;;23.57;14.53;;;;;;;;;;5076108;28;20209;-79
2022/03/31 01:06:47;;;;;;;21.53;14.17;;;;;;;;;;5073724;28;20744;-80
2022/03/31 01:09:14;;;;;;;22.37;13.53;;;;;;;;;;5074121;28;20224;-79
2022/03/31 01:11:41;;;;;;;27.43;15.70;;;;;;;;;;5074595;28;20240;-80
2022/03/31 01:14:09;;;;;;;24.50;15.17;;;;;;;;;;5075379;28;20216;-79
2022/03/31 01:16:36;;;;;;;23.93;15.43;;;;;;;;;;5074131;28;20240;-79
2022/03/31 01:19:07;;;;;;;25.43;14.50;;;;;;;;;;5075039;28;20705;-79
2022/03/31 01:21:39;;;;;;;23.07;15.87;;;;;;;;;;5074610;28;20323;-79
2022/03/31 01:24:08;;;;;;;23.90;14.53;;;;;;;;;;5075172;28;20271;-79
2022/03/31 01:26:35;;;;;;;24.37;15.00;;;;;;;;;;5073961;28;20876;-79
2022/03/31 01:29:03;;;;;;;28.33;16.67;;;;;;;;;;5075031;28;20208;-80
2022/03/31 01:31:30;;;;;;;27.50;15.93;;;;;;;;;;5074119;28;20708;-79
2022/03/31 01:33:57;;;;;;;29.07;15.67;;;;;;;;;;5074541;28;20640;-80
2022/03/31 01:36:25;;;;;;;29.03;14.70;;;;;;;;;;5074064;28;20233;-79
2022/03/31 01:38:53;;;;;;;26.53;14.13;;;;;;;;;;5074500;28;20996;-79
2022/03/31 01:41:21;;;;;;;25.53;14.83;;;;;;;;;;5074391;28;20294;-79
2022/03/31 01:43:48;;;;;;;22.30;13.53;;;;;;;;;;5074853;28;20210;-79
2022/03/31 01:46:15;;;;;;;20.50;13.70;;;;;;;;;;5073612;28;20237;-79
2022/03/31 01:48:42;;;;;;;20.90;13.37;;;;;;;;;;5074210;28;20206;-80
2022/03/31 01:51:09;;;;;;;25.37;13.97;;;;;;;;;;5073910;28;20241;-79
2022/03/31 01:53:38;;;;;;;26.93;15.90;;;;;;;;;;5074624;28;20209;-80
2022/03/31 01:56:06;;;;;;;24.93;15.90;;;;;;;;;;5073872;28;20232;-79
2022/03/31 01:58:35;;;;;;;27.00;15.13;;;;;;;;;;5074769;28;20205;-79
2022/03/31 02:01:02;;;;;;;26.37;15.03;;;;;;;;;;5074572;28;20244;-79
2022/03/31 02:03:29;;;;;;;24.20;14.63;;;;;;;;;;5074625;28;20273;-80
2022/03/31 02:05:56;;;;;;;27.90;15.80;;;;;;;;;;5073720;28;20789;-79
2022/03/31 02:08:23;;;;;;;26.23;16.07;;;;;;;;;;5074047;28;20272;-79
2022/03/31 02:10:50;;;;;;;29.07;16.47;;;;;;;;;;5073274;28;20238;-80
2022/03/31 02:13:17;;;;;;;24.47;14.37;;;;;;;;;;5074472;28;20238;-79
2022/03/31 02:15:46;;;;;;;24.77;15.30;;;;;;;;;;5073651;28;20975;-80
2022/03/31 02:18:13;;;;;;;24.70;16.17;;;;;;;;;;5073657;28;20231;-80
2022/03/31 02:20:41;;;;;;;23.97;15.27;;;;;;;;;;5073574;28;20707;-79
2022/03/31 02:23:09;;;;;;;27.80;16.17;;;;;;;;;;5074091;28;20254;-79
2022/03/31 02:25:36;;;;;;;27.40;15.70;;;;;;;;;;5073352;28;20239;-79
2022/03/31 02:28:03;;;;;;;28.13;15.17;;;;;;;;;;5073451;28;20222;-79
2022/03/31 02:30:30;;;;;;;28.90;16.93;;;;;;;;;;5072937;28;20305;-79
2022/03/31 02:33:00;;;;;;;27.83;16.03;;;;;;;;;;5074283;28;20205;-79
2022/03/31 02:35:28;;;;;;;25.30;13.93;;;;;;;;;;5077111;28;20253;-79
2022/03/31 02:37:55;;;;;;;20.37;13.67;;;;;;;;;;5074189;28;20257;-79
2022/03/31 02:40:22;;;;;;;21.97;12.70;;;;;;;;;;5073848;28;20351;-80
2022/03/31 02:42:49;;;;;;;24.40;14.53;;;;;;;;;;5074313;28;20212;-79
2022/03/31 02:45:18;;;;;;;22.87;14.37;;;;;;;;;;5072963;28;20201;-78
2022/03/31 02:47:45;;;;;;;23.47;13.70;;;;;;;;;;5072822;28;20238;-77
2022/03/31 02:50:14;;;;;;;24.67;14.60;;;;;;;;;;5072579;28;20316;-78
2022/03/31 02:55:29;;;;;;;26.77;15.63;;;;;;;;;;5046577;28;20230;-80
2022/03/31 02:57:57;;;;;;;25.97;15.23;;;;;;;;;;5073557;28;20257;-79
2022/03/31 03:00:24;;;;;;;24.93;14.77;;;;;;;;;;5072970;28;20237;-80
2022/03/31 03:02:51;;;;;;;21.77;13.67;;;;;;;;;;5073548;28;20210;-80
2022/03/31 03:05:21;;;;;;;21.13;14.17;;;;;;;;;;5072927;28;20213;-80
2022/03/31 03:07:48;;;;;;;24.03;14.17;;;;;;;;;;5073272;28;20225;-80
2022/03/31 03:10:15;;;;;;;23.13;15.07;;;;;;;;;;5072903;28;20222;-79
2022/03/31 03:12:42;;;;;;;22.87;13.60;;;;;;;;;;5073419;28;20217;-80
2022/03/31 03:15:09;;;;;;;23.40;14.27;;;;;;;;;;5073393;28;20216;-80
2022/03/31 03:17:37;;;;;;;22.77;13.93;;;;;;;;;;5072742;28;20255;-79
2022/03/31 03:20:04;;;;;;;21.40;13.47;;;;;;;;;;5072690;28;20203;-80
2022/03/31 03:22:32;;;;;;;21.20;13.47;;;;;;;;;;5072562;28;20206;-79
2022/03/31 03:25:00;;;;;;;19.87;12.80;;;;;;;;;;5072944;28;20241;-80
2022/03/31 03:27:27;;;;;;;21.50;13.30;;;;;;;;;;5072794;28;20585;-80
2022/03/31 03:29:54;;;;;;;20.83;12.33;;;;;;;;;;5072969;28;20667;-80
2022/03/31 03:32:22;;;;;;;22.43;14.07;;;;;;;;;;5072033;28;20243;-81
2022/03/31 03:34:49;;;;;;;21.43;13.23;;;;;;;;;;5073116;28;20218;-80
2022/03/31 03:37:16;;;;;;;18.90;13.17;;;;;;;;;;5072059;28;20237;-80
2022/03/31 03:39:45;;;;;;;23.23;13.23;;;;;;;;;;5073134;28;20699;-80
2022/03/31 03:42:12;;;;;;;18.83;12.43;;;;;;;;;;5072555;28;20324;-80
2022/03/31 03:44:39;;;;;;;19.50;12.33;;;;;;;;;;5076097;28;20205;-80
2022/03/31 03:47:06;;;;;;;16.67;11.73;;;;;;;;;;5073739;28;20236;-80
2022/03/31 03:49:34;;;;;;;21.67;12.30;;;;;;;;;;5074001;28;20235;-81
2022/03/31 03:52:01;;;;;;;21.83;13.83;;;;;;;;;;5073863;28;20321;-80
2022/03/31 03:54:28;;;;;;;21.47;12.93;;;;;;;;;;5074768;28;20228;-81
2022/03/31 03:56:56;;;;;;;20.17;13.73;;;;;;;;;;5073649;28;20721;-80
2022/03/31 03:59:24;;;;;;;23.43;13.03;;;;;;;;;;5074504;28;20252;-80
2022/03/31 04:01:51;;;;;;;21.20;12.97;;;;;;;;;;5073302;28;20248;-80
2022/03/31 04:04:18;;;;;;;22.13;14.20;;;;;;;;;;5074052;28;20221;-80
2022/03/31 04:06:45;;;;;;;23.33;13.10;;;;;;;;;;5072488;28;20669;-80
2022/03/31 04:09:13;;;;;;;20.37;12.90;;;;;;;;;;5072374;28;20214;-80
2022/03/31 04:11:40;;;;;;;23.40;13.40;;;;;;;;;;5071648;28;20291;-79
2022/03/31 04:14:08;;;;;;;27.00;13.87;;;;;;;;;;5072369;28;20210;-79
2022/03/31 04:16:35;;;;;;;20.97;12.97;;;;;;;;;;5072193;28;20681;-80
2022/03/31 04:19:07;;;;;;;23.63;13.40;;;;;;;;;;5084692;28;20210;-81
2022/03/31 04:21:35;;;;;;;22.37;13.53;;;;;;;;;;5083748;28;20252;-81
2022/03/31 04:24:02;;;;;;;24.60;13.33;;;;;;;;;;5082985;28;20225;-80
2022/03/31 04:26:29;;;;;;;23.17;13.57;;;;;;;;;;5071889;28;20292;-80
2022/03/31 04:28:56;;;;;;;20.63;12.93;;;;;;;;;;5072456;28;20217;-80
2022/03/31 04:31:24;;;;;;;24.43;12.80;;;;;;;;;;5071630;28;20231;-80
2022/03/31 04:33:51;;;;;;;23.43;13.53;;;;;;;;;;5074891;28;20674;-80
2022/03/31 04:36:20;;;;;;;20.63;12.77;;;;;;;;;;5075254;28;20241;-80
2022/03/31 04:38:47;;;;;;;27.07;13.63;;;;;;;;;;5076233;28;20205;-80
2022/03/31 04:41:14;;;;;;;21.53;13.00;;;;;;;;;;5075419;28;20233;-80
2022/03/31 04:43:41;;;;;;;22.47;13.30;;;;;;;;;;5075694;28;20206;-80
2022/03/31 04:46:08;;;;;;;24.60;14.27;;;;;;;;;;5075170;28;20244;-80
2022/03/31 04:48:37;;;;;;;22.77;14.10;;;;;;;;;;5075631;28;20198;-80
2022/03/31 04:51:04;;;;;;;27.13;14.23;;;;;;;;;;5079594;28;20254;-80
2022/03/31 04:53:31;;;;;;;25.40;14.50;;;;;;;;;;5079420;28;20243;-80
2022/03/31 04:55:58;;;;;;;23.10;14.07;;;;;;;;;;5075070;28;20229;-80
2022/03/31 04:58:25;;;;;;;24.13;14.83;;;;;;;;;;5075356;28;20233;-80
2022/03/31 05:00:52;;;;;;;27.93;15.30;;;;;;;;;;5074675;28;20228;-80
2022/03/31 05:03:19;;;;;;;22.37;13.70;;;;;;;;;;5075570;28;20274;-80
2022/03/31 05:05:48;;;;;;;24.37;14.00;;;;;;;;;;5074880;28;20235;-80
2022/03/31 05:08:15;;;;;;;24.67;13.90;;;;;;;;;;5075530;28;20221;-80
2022/03/31 05:10:45;;;;;;;22.43;13.93;;;;;;;;;;5074874;28;20235;-80
2022/03/31 05:13:12;;;;;;;21.73;13.80;;;;;;;;;;5079374;28;20359;-80
2022/03/31 05:15:39;;;;;;;28.57;14.73;;;;;;;;;;5081376;28;20241;-81
2022/03/31 05:18:06;;;;;;;23.73;13.63;;;;;;;;;;5081820;28;20230;-80
2022/03/31 05:20:34;;;;;;;22.43;13.10;;;;;;;;;;5079877;28;20237;-80
2022/03/31 05:23:03;;;;;;;24.07;14.07;;;;;;;;;;5079338;28;20236;-81
2022/03/31 05:25:30;;;;;;;24.20;14.17;;;;;;;;;;5081177;28;20236;-81
2022/03/31 05:27:58;;;;;;;23.30;13.67;;;;;;;;;;5079644;28;20229;-81
2022/03/31 05:30:25;;;;;;;26.07;15.60;;;;;;;;;;5097591;22;20516;-83
2022/03/31 05:32:54;;;;;;;26.93;14.97;;;;;;;;;;5061184;28;20212;-83
2022/03/31 05:35:21;;;;;;;29.10;15.10;;;;;;;;;;5074771;28;20243;-85
2022/03/31 05:37:49;;;;;;;27.80;14.77;;;;;;;;;;5073947;28;20731;-85
2022/03/31 05:40:18;;;;;;;26.27;15.50;;;;;;;;;;5054370;28;20679;-83
2022/03/31 05:42:45;;;;;;;26.27;14.97;;;;;;;;;;5037492;28;20206;-85
2022/03/31 05:45:14;;;;;;;28.33;15.23;;;;;;;;;;5025716;28;20204;-85
2022/03/31 05:47:41;;;;;;;27.60;14.80;;;;;;;;;;5043328;28;20195;-85
2022/03/31 05:50:09;;;;;;;28.23;16.27;;;;;;;;;;5054588;28;20215;-85
2022/03/31 05:52:38;;;;;;;28.67;15.77;;;;;;;;;;5055076;28;20210;-85
2022/03/31 05:55:06;;;;;;;30.30;16.43;;;;;;;;;;5054415;28;20300;-85
2022/03/31 05:57:34;;;;;;;27.70;14.67;;;;;;;;;;5054663;28;20208;-86
2022/03/31 06:00:03;;;;;;;27.47;15.60;;;;;;;;;;5054409;28;20211;-86
2022/03/31 06:02:30;;;;;;;32.63;16.10;;;;;;;;;;5054954;28;20218;-85
2022/03/31 06:04:58;;;;;;;28.50;16.50;;;;;;;;;;5056924;28;20679;-85
2022/03/31 06:07:25;;;;;;;28.30;15.93;;;;;;;;;;5035221;28;20228;-85
2022/03/31 06:09:52;;;;;;;31.20;16.30;;;;;;;;;;5027855;28;20216;-86
2022/03/31 06:12:19;;;;;;;25.43;15.60;;;;;;;;;;5014211;28;20235;-85
2022/03/31 06:14:48;;;;;;;29.70;16.17;;;;;;;;;;5015002;28;20214;-83
2022/03/31 06:17:15;;;;;;;26.80;15.83;;;;;;;;;;5015164;28;20230;-88
2022/03/31 06:19:48;;;;;;;27.40;15.87;;;;;;;;;;5032603;28;20199;-88
2022/03/31 06:22:15;;;;;;;30.77;15.60;;;;;;;;;;5035541;28;20285;-88
2022/03/31 06:24:42;;;;;;;27.70;15.77;;;;;;;;;;5035423;28;20218;-89
2022/03/31 06:27:11;;;;;;;23.87;14.67;;;;;;;;;;5034612;28;20666;-88
2022/03/31 06:29:40;;;;;;;26.97;15.10;;;;;;;;;;5035825;28;20604;-88
2022/03/31 06:32:09;;;;;;;27.77;14.73;;;;;;;;;;5033780;28;20267;-88
2022/03/31 06:34:37;;;;;;;28.07;16.13;;;;;;;;;;5034357;28;20676;-88
2022/03/31 06:37:15;;;;;;;27.10;16.37;;;;;;;;;;5033335;28;20286;-88
2022/03/31 06:39:42;;;;;;;25.87;14.80;;;;;;;;;;5034383;28;20195;-88
2022/03/31 06:42:10;;;;;;;22.97;14.10;;;;;;;;;;5033669;28;20286;-88
2022/03/31 06:44:37;;;;;;;28.50;16.13;;;;;;;;;;5034373;28;20598;-88
2022/03/31 06:47:05;;;;;;;25.07;14.40;;;;;;;;;;5034772;28;20236;-88
2022/03/31 06:49:34;;;;;;;26.07;15.83;;;;;;;;;;5034990;28;20214;-88
2022/03/31 06:52:01;;;;;;;26.77;15.73;;;;;;;;;;5035449;28;20262;-88
2022/03/31 06:54:30;;;;;;;28.20;16.43;;;;;;;;;;5035075;28;20253;-88
2022/03/31 06:56:57;;;;;;;28.77;16.40;;;;;;;;;;5033863;28;20598;-88
2022/03/31 06:59:24;;;;;;;22.27;15.07;;;;;;;;;;5036013;28;20213;-85
2022/03/31 07:01:51;;;;;;;23.57;14.20;;;;;;;;;;5034696;28;20241;-85
2022/03/31 07:04:18;;;;;;;24.63;14.77;;;;;;;;;;5035211;28;20213;-85
2022/03/31 07:06:48;;;;;;;26.43;14.73;;;;;;;;;;5034475;28;20242;-85
2022/03/31 07:09:15;;;;;;;25.07;14.87;;;;;;;;;;5034201;28;20205;-85
2022/03/31 07:11:42;;;;;;;21.00;13.83;;;;;;;;;;5029187;28;20230;-85
2022/03/31 07:14:10;;;;;;;21.27;13.23;;;;;;;;;;5035191;28;20275;-85
2022/03/31 07:16:37;;;;;;;19.20;12.77;;;;;;;;;;5032708;28;20230;-85
2022/03/31 07:19:04;;;;;;;20.40;13.70;;;;;;;;;;5049788;28;20198;-85
2022/03/31 07:21:34;;;;;;;31.17;15.20;;;;;;;;;;5052854;28;20284;-85
2022/03/31 07:24:02;;;;;;;25.43;12.40;;;;;;;;;;5053701;28;20213;-85
2022/03/31 07:26:30;;;;;;;27.23;13.80;;;;;;;;;;5054124;28;20241;-85
2022/03/31 07:28:57;;;;;;;20.10;13.17;;;;;;;;;;5053804;28;20196;-85
2022/03/31 07:31:25;;;;;;;25.97;14.27;;;;;;;;;;5053660;28;20245;-85
2022/03/31 07:33:52;;;;;;;19.57;12.73;;;;;;;;;;5053155;28;20210;-85
2022/03/31 07:36:19;;;;;;;23.33;12.57;;;;;;;;;;5052677;28;20249;-85
2022/03/31 07:38:46;;;;;;;19.20;13.23;;;;;;;;;;5052915;28;20194;-85
2022/03/31 07:41:15;;;;;;;17.97;12.33;;;;;;;;;;5052718;28;20245;-85
2022/03/31 07:43:42;;;;;;;20.67;12.70;;;;;;;;;;5053976;28;20651;-85
2022/03/31 07:46:10;;;;;;;19.37;12.70;;;;;;;;;;5053659;28;20746;-85
2022/03/31 07:48:37;;;;;;;19.07;12.00;;;;;;;;;;5052423;28;20214;-85
2022/03/31 07:51:04;;;;;;;21.73;12.50;;;;;;;;;;5051560;28;20700;-86
2022/03/31 07:53:33;;;;;;;19.33;12.30;;;;;;;;;;5051742;28;20230;-85
2022/03/31 07:56:00;;;;;;;23.37;13.20;;;;;;;;;;5052935;28;20303;-85
2022/03/31 07:58:29;;;;;;;19.10;12.73;;;;;;;;;;5054135;28;20202;-85
2022/03/31 08:00:56;;;;;;;22.73;13.00;;;;;;;;;;5038275;28;20257;-85
2022/03/31 08:03:23;;;;;;;20.50;12.20;;;;;;;;;;5032490;28;20194;-85
2022/03/31 08:05:52;;;;;;;21.50;13.10;;;;;;;;;;5031625;28;20284;-85
2022/03/31 08:08:19;;;;;;;22.50;14.23;;;;;;;;;;5031638;28;20209;-85
2022/03/31 08:10:46;;;;;;;23.33;12.67;;;;;;;;;;5031478;28;20329;-85
2022/03/31 08:13:13;;;;;;;23.47;12.90;;;;;;;;;;5031916;28;20218;-84
2022/03/31 08:15:42;;;;;;;23.00;14.07;;;;;;;;;;5031440;28;20257;-86
2022/03/31 08:18:09;;;;;;;19.23;13.03;;;;;;;;;;5032069;28;20214;-85
2022/03/31 08:20:36;;;;;;;17.30;12.30;;;;;;;;;;5031178;28;20328;-85
2022/03/31 08:23:04;;;;;;;20.03;12.80;;;;;;;;;;5012538;28;20205;-85
2022/03/31 08:25:31;;;;;;;18.67;12.57;;;;;;;;;;5011800;28;20238;-85
2022/03/31 08:27:58;;;;;;;19.33;13.47;;;;;;;;;;5011838;28;20281;-85
2022/03/31 08:30:26;;;;;;;21.27;13.97;;;;;;;;;;5011491;28;20258;-85
2022/03/31 08:32:54;;;;;;;20.63;13.47;;;;;;;;;;5027038;28;20759;-85
2022/03/31 08:35:24;;;;;;;21.10;13.17;;;;;;;;;;5030939;28;20218;-86
2022/03/31 08:37:51;;;;;;;20.07;12.63;;;;;;;;;;5031729;28;20276;-85
2022/03/31 08:40:18;;;;;;;22.63;13.07;;;;;;;;;;5031348;28;20230;-85
2022/03/31 08:42:45;;;;;;;22.67;14.70;;;;;;;;;;5027749;28;20218;-85
2022/03/31 08:45:15;;;;;;;18.83;13.30;;;;;;;;;;5011821;28;20213;-85
2022/03/31 08:47:45;;;;;;;21.77;12.30;;;;;;;;;;5012156;28;20211;-87
2022/03/31 08:50:13;;;;;;;18.67;12.57;;;;;;;;;;5012121;28;20203;-88
2022/03/31 08:52:40;;;;;;;21.83;13.07;;;;;;;;;;5012368;28;20571;-87
2022/03/31 08:55:12;;;;;;;19.70;11.70;;;;;;;;;;5011792;28;20207;-86
2022/03/31 08:57:43;;;;;;;22.67;13.57;;;;;;;;;;5012488;28;20191;-87
2022/03/31 09:00:11;;;;;;;17.67;11.80;;;;;;;;;;5011933;28;20570;-86
2022/03/31 09:02:39;;;;;;;20.73;12.97;;;;;;;;;;5012611;28;20214;-85
2022/03/31 09:05:09;;;;;;;19.90;13.23;;;;;;;;;;5017472;28;20216;-86
2022/03/31 09:07:38;;;;;;;21.90;12.97;;;;;;;;;;5025884;28;20197;-83
2022/03/31 09:10:05;;;;;;;16.67;12.77;;;;;;;;;;5019148;28;20203;-86
2022/03/31 09:12:39;;;;;;;21.40;12.30;;;;;;;;;;5016496;28;20211;-86
2022/03/31 09:15:09;;;;;;;17.93;12.30;;;;;;;;;;5014246;28;20207;-86
2022/03/31 09:17:39;;;;;;;18.77;12.80;;;;;;;;;;5028455;28;20211;-86
2022/03/31 09:20:06;;;;;;;20.50;12.63;;;;;;;;;;5032583;28;20202;-86
2022/03/31 09:22:48;;;;;;;17.50;11.57;;;;;;;;;;5035670;28;20214;-86
2022/03/31 09:25:23;;;;;;;19.43;13.07;;;;;;;;;;5034900;28;20233;-85
2022/03/31 09:27:50;;;;;;;20.43;13.03;;;;;;;;;;5035008;28;20186;-86
2022/03/31 09:30:18;;;;;;;18.57;12.80;;;;;;;;;;5034447;28;20230;-86
2022/03/31 09:32:48;;;;;;;20.17;12.33;;;;;;;;;;5034926;28;20320;-86
2022/03/31 09:35:18;;;;;;;18.70;13.00;;;;;;;;;;5033998;28;20298;-86
2022/03/31 09:37:48;;;;;;;20.53;13.30;;;;;;;;;;5034926;28;20215;-86
2022/03/31 09:40:15;;;;;;;18.40;12.30;;;;;;;;;;5034325;28;20203;-86
2022/03/31 09:42:42;;;;;;;21.07;13.83;;;;;;;;;;5034631;28;20629;-86
2022/03/31 09:45:10;;;;;;;20.47;12.87;;;;;;;;;;5034157;28;20210;-86
2022/03/31 09:47:44;;;;;;;20.83;13.47;;;;;;;;;;5034605;28;20207;-86
2022/03/31 09:50:14;;;;;;;24.60;14.47;;;;;;;;;;5034377;28;20187;-86
2022/03/31 09:52:42;;;;;;;21.37;13.37;;;;;;;;;;5033928;28;20227;-86
2022/03/31 09:55:11;;;;;;;21.57;13.33;;;;;;;;;;5033743;28;20206;-86
2022/03/31 09:57:40;;;;;;;16.67;12.23;;;;;;;;;;5034574;28;20202;-86
2022/03/31 10:00:08;;;;;;;20.57;13.33;;;;;;;;;;5034022;28;20746;-86
2022/03/31 10:02:36;;;;;;;19.97;13.67;;;;;;;;;;5034321;28;20238;-86
2022/03/31 10:05:04;;;;;;;21.90;14.27;;;;;;;;;;5033622;28;20195;-86
2022/03/31 10:07:31;;;;;;;23.17;13.40;;;;;;;;;;5034127;28;20226;-86
2022/03/31 10:09:59;;;;;;;22.13;13.93;;;;;;;;;;5029149;28;20238;-86
2022/03/31 10:12:33;;;;;;;22.90;14.80;;;;;;;;;;5013905;28;20720;-86
2022/03/31 10:15:02;;;;;;;21.83;13.13;;;;;;;;;;5014547;28;20203;-86
2022/03/31 10:17:30;;;;;;;19.53;13.67;;;;;;;;;;5013980;28;20234;-86
2022/03/31 10:20:07;;;;;;;19.57;12.83;;;;;;;;;;5014440;28;20625;-86
2022/03/31 10:25:20;;;;;;;18.97;13.53;;;;;;;;;;5033386;28;20296;-86
2022/03/31 10:27:50;;;;;;;19.60;13.87;;;;;;;;;;5033342;28;20223;-85
2022/03/31 10:30:18;;;;;;;21.00;15.37;;;;;;;;;;5033673;28;20235;-86
2022/03/31 10:32:52;;;;;;;23.40;13.27;;;;;;;;;;5033989;28;20215;-86
2022/03/31 10:35:23;;;;;;;21.47;14.00;;;;;;;;;;5033685;28;20209;-84
2022/03/31 10:37:51;;;;;;;23.37;14.17;;;;;;;;;;5036581;28;20252;-86
2022/03/31 10:40:29;;;;;;;19.87;13.20;;;;;;;;;;5034031;28;20281;-86
2022/03/31 10:42:57;;;;;;;19.83;13.40;;;;;;;;;;5034835;28;20217;-85
2022/03/31 10:45:34;;;;;;;20.07;13.87;;;;;;;;;;5013749;28;20235;-86
2022/03/31 10:48:01;;;;;;;24.87;14.33;;;;;;;;;;5033058;28;20214;-86
2022/03/31 10:50:31;;;;;;;21.90;13.50;;;;;;;;;;5032688;28;20593;-86
2022/03/31 10:52:59;;;;;;;21.53;13.33;;;;;;;;;;5033419;28;20582;-86
2022/03/31 10:55:34;;;;;;;21.27;14.00;;;;;;;;;;5032629;28;20236;-86
2022/03/31 10:58:02;;;;;;;19.87;13.97;;;;;;;;;;5033657;28;20670;-85
2022/03/31 11:00:29;;;;;;;22.17;13.97;;;;;;;;;;5033081;28;20580;-86
2022/03/31 11:02:56;;;;;;;16.60;12.03;;;;;;;;;;5032017;28;20685;-86
2022/03/31 11:05:25;;;;;;;21.80;13.73;;;;;;;;;;5032482;28;20231;-86
2022/03/31 11:08:02;;;;;;;21.60;13.73;;;;;;;;;;5033543;28;20213;-86
2022/03/31 11:10:29;;;;;;;20.13;13.47;;;;;;;;;;5032600;28;20257;-86
2022/03/31 11:12:56;;;;;;;18.60;12.80;;;;;;;;;;5033101;28;20229;-86
2022/03/31 11:15:24;;;;;;;18.77;13.37;;;;;;;;;;5032554;28;20246;-86
2022/03/31 11:17:59;;;;;;;19.80;13.63;;;;;;;;;;5032669;28;20576;-86
2022/03/31 11:20:27;;;;;;;19.80;13.23;;;;;;;;;;5032160;28;20238;-84
2022/03/31 11:22:55;;;;;;;21.83;12.77;;;;;;;;;;5033558;28;20264;-84
2022/03/31 11:25:23;;;;;;;19.50;13.83;;;;;;;;;;5032320;28;20202;-83
2022/03/31 11:27:52;;;;;;;20.40;14.47;;;;;;;;;;5039529;28;20202;-84
2022/03/31 11:30:20;;;;;;;23.67;14.70;;;;;;;;;;5049250;28;20233;-85
2022/03/31 11:32:55;;;;;;;22.20;14.50;;;;;;;;;;5036163;28;20249;-85
2022/03/31 11:35:24;;;;;;;23.87;14.77;;;;;;;;;;5033065;28;20202;-85
2022/03/31 11:38:00;;;;;;;19.53;12.83;;;;;;;;;;5032833;28;20223;-85
2022/03/31 11:40:28;;;;;;;21.10;13.73;;;;;;;;;;5032399;28;20234;-85
2022/03/31 11:42:57;;;;;;;22.23;13.60;;;;;;;;;;5032286;28;20577;-85
2022/03/31 11:45:25;;;;;;;18.90;13.23;;;;;;;;;;5032252;28;20241;-86
2022/03/31 11:48:03;;;;;;;20.07;13.87;;;;;;;;;;5032638;28;20206;-86
2022/03/31 11:50:32;;;;;;;17.77;12.63;;;;;;;;;;5032422;28;20237;-85
2022/03/31 11:53:00;;;;;;;19.37;13.23;;;;;;;;;;5032733;28;20223;-85
2022/03/31 11:55:27;;;;;;;18.27;13.47;;;;;;;;;;5032095;28;20238;-86
2022/03/31 11:57:56;;;;;;;19.53;13.03;;;;;;;;;;5041566;28;20214;-83
2022/03/31 12:00:24;;;;;;;20.20;13.13;;;;;;;;;;5041502;28;20269;-83
2022/03/31 12:02:57;;;;;;;19.83;13.10;;;;;;;;;;5043500;28;20210;-82
2022/03/31 12:05:26;;;;;;;21.23;13.57;;;;;;;;;;5042386;28;20234;-83
2022/03/31 12:07:53;;;;;;;19.90;13.43;;;;;;;;;;5042517;28;20218;-84
2022/03/31 12:10:21;;;;;;;18.03;12.93;;;;;;;;;;5041013;28;20850;-83
2022/03/31 12:12:49;;;;;;;19.07;13.50;;;;;;;;;;5037387;28;20206;-85
2022/03/31 12:15:20;;;;;;;18.87;13.10;;;;;;;;;;5033481;28;20249;-85
2022/03/31 12:17:56;;;;;;;17.97;13.03;;;;;;;;;;5031933;28;20227;-85
2022/03/31 12:20:26;;;;;;;20.47;13.07;;;;;;;;;;5032162;28;20679;-85
2022/03/31 12:22:53;;;;;;;16.13;11.27;;;;;;;;;;5032749;28;20210;-85
2022/03/31 12:25:30;;;;;;;17.30;12.57;;;;;;;;;;5021777;28;20198;-85
2022/03/31 12:28:03;;;;;;;17.37;12.37;;;;;;;;;;5032210;28;20213;-85
2022/03/31 12:30:39;;;;;;;16.30;12.67;;;;;;;;;;5025281;28;20238;-85
2022/03/31 12:33:16;;;;;;;16.70;12.27;;;;;;;;;;5032225;28;20210;-86
2022/03/31 12:35:51;;;;;;;16.87;11.87;;;;;;;;;;5031545;28;20238;-85
2022/03/31 12:38:18;;;;;;;18.67;12.20;;;;;;;;;;5032107;28;20194;-85
2022/03/31 12:40:45;;;;;;;17.13;12.00;;;;;;;;;;5031757;28;20238;-85
2022/03/31 12:43:25;;;;;;;16.03;12.10;;;;;;;;;;5033949;28;20203;-85
2022/03/31 12:45:53;;;;;;;17.83;12.37;;;;;;;;;;5034665;28;20319;-85
2022/03/31 12:48:21;;;;;;;17.67;11.97;;;;;;;;;;5034618;28;20209;-85
2022/03/31 12:51:00;;;;;;;15.70;11.33;;;;;;;;;;5035046;28;20250;-86
2022/03/31 12:53:38;;;;;;;16.33;11.37;;;;;;;;;;5035177;28;20272;-85
2022/03/31 12:56:05;;;;;;;15.27;11.77;;;;;;;;;;5038027;28;20257;-85
2022/03/31 12:58:36;;;;;;;17.77;12.10;;;;;;;;;;5039219;28;20210;-86
2022/03/31 13:01:03;;;;;;;16.70;11.30;;;;;;;;;;5035625;28;20239;-84
2022/03/31 13:03:30;;;;;;;14.67;10.93;;;;;;;;;;5036721;28;20199;-83
2022/03/31 13:06:01;;;;;;;16.23;11.87;;;;;;;;;;5035756;28;20234;-84
2022/03/31 13:08:29;;;;;;;16.57;11.50;;;;;;;;;;5035311;28;20643;-84
2022/03/31 13:10:58;;;;;;;15.90;11.23;;;;;;;;;;5036169;28;20245;-84
2022/03/31 13:13:25;;;;;;;16.73;12.10;;;;;;;;;;5039744;28;20699;-85
2022/03/31 13:15:52;;;;;;;14.17;10.43;;;;;;;;;;5039815;28;20242;-83
2022/03/31 13:18:19;;;;;;;16.60;11.70;;;;;;;;;;5039832;28;20221;-83
2022/03/31 13:20:46;;;;;;;15.70;11.07;;;;;;;;;;5041261;28;20242;-84
2022/03/31 13:23:29;;;;;;;13.67;10.90;;;;;;;;;;5041182;28;20199;-83
2022/03/31 13:25:56;;;;;;;12.90;10.67;;;;;;;;;;5040305;28;20241;-83
2022/03/31 13:28:23;;;;;;;15.07;10.80;;;;;;;;;;5039058;28;20210;-85
2022/03/31 13:30:50;;;;;;;14.10;9.70;;;;;;;;;;5036445;28;20714;-84
2022/03/31 13:33:17;;;;;;;12.80;9.23;;;;;;;;;;5036835;28;20222;-84
2022/03/31 13:35:45;;;;;;;13.43;10.13;;;;;;;;;;5038224;28;20239;-85
2022/03/31 13:38:12;;;;;;;15.13;10.50;;;;;;;;;;5039043;28;20663;-84
2022/03/31 13:40:41;;;;;;;12.37;8.83;;;;;;;;;;5041675;28;20249;-84
2022/03/31 13:43:09;;;;;;;15.60;10.13;;;;;;;;;;5040401;28;20223;-84
2022/03/31 13:45:36;;;;;;;12.20;9.67;;;;;;;;;;5037288;28;20651;-84
2022/03/31 13:48:20;;;;;;;13.03;9.00;;;;;;;;;;5035096;28;20215;-84
2022/03/31 13:50:47;;;;;;;12.87;10.23;;;;;;;;;;5035853;28;20638;-84
2022/03/31 13:56:00;;;;;;;13.17;9.00;;;;;;;;;;5059332;28;20248;-85
2022/03/31 14:01:12;;;;;;;16.63;9.37;;;;;;;;;;5038690;28;20245;-84
2022/03/31 14:03:43;;;;;;;12.70;9.17;;;;;;;;;;5055712;28;20201;-83
2022/03/31 14:06:10;;;;;;;10.73;8.70;;;;;;;;;;5058341;28;20241;-83
2022/03/31 14:08:37;;;;;;;12.70;9.37;;;;;;;;;;5060041;28;20202;-83
2022/03/31 14:11:06;;;;;;;12.70;9.90;;;;;;;;;;5073711;28;20228;-82
2022/03/31 14:13:40;;;;;;;15.27;10.47;;;;;;;;;;5071308;28;20222;-83
2022/03/31 14:16:08;;;;;;;13.20;10.20;;;;;;;;;;5070658;28;20234;-84
2022/03/31 14:18:36;;;;;;;14.30;10.60;;;;;;;;;;5071220;28;20236;-83
2022/03/31 14:21:04;;;;;;;22.67;10.47;;;;;;;;;;5066764;28;20237;-83
2022/03/31 14:23:31;;;;;;;14.00;9.60;;;;;;;;;;5071604;28;20206;-84
2022/03/31 14:25:59;;;;;;;14.73;9.37;;;;;;;;;;5065153;28;20234;-83
2022/03/31 14:28:28;;;;;;;12.27;8.73;;;;;;;;;;5067663;28;20190;-84
2022/03/31 14:30:55;;;;;;;15.07;9.70;;;;;;;;;;5063105;28;20325;-83
2022/03/31 14:33:23;;;;;;;14.93;11.10;;;;;;;;;;5054875;28;20206;-83
2022/03/31 14:35:50;;;;;;;15.83;10.53;;;;;;;;;;5052961;28;20245;-84